createdAt,value
2023-06-30T00:00:26.819Z,101512.78
2023-06-30T00:02:57.049Z,101523.25
2023-06-30T00:05:26.644Z,101518.88
2023-06-30T00:07:59.744Z,101517.25
2023-06-30T00:10:27.723Z,101528.53
2023-06-30T00:12:55.361Z,101520.75
2023-06-30T00:15:22.969Z,101525.97
2023-06-30T00:17:50.569Z,101517.25
2023-06-30T00:20:18.240Z,101518.97
2023-06-30T00:22:45.811Z,101517.28
2023-06-30T00:25:15.283Z,101518.25
2023-06-30T00:27:43.314Z,101516.53
2023-06-30T00:30:11.207Z,101505.28
2023-06-30T00:32:38.919Z,101507.00
2023-06-30T00:35:07.081Z,101513.16
2023-06-30T00:37:34.697Z,101515.84
2023-06-30T00:40:02.230Z,101504.53
2023-06-30T00:42:29.878Z,101513.22
2023-06-30T00:44:57.425Z,101503.66
2023-06-30T00:47:25.153Z,101503.78
2023-06-30T00:49:53.090Z,101502.09
2023-06-30T00:52:20.963Z,101496.88
2023-06-30T00:54:48.798Z,101493.44
2023-06-30T00:57:16.408Z,101500.44
2023-06-30T00:59:44.288Z,101489.13
2023-06-30T01:02:20.674Z,101490.03
2023-06-30T01:04:57.332Z,101495.25
2023-06-30T01:07:34.360Z,101493.44
2023-06-30T01:10:08.387Z,101494.41
2023-06-30T01:12:36.877Z,101499.63
2023-06-30T01:15:05.719Z,101492.69
2023-06-30T01:17:36.139Z,101499.66
2023-06-30T01:20:11.104Z,101497.13
2023-06-30T01:22:45.827Z,101495.38
2023-06-30T01:25:20.817Z,101508.47
2023-06-30T01:27:50.415Z,101502.38
2023-06-30T01:30:19.932Z,101507.69
2023-06-30T01:32:48.847Z,101501.69
2023-06-30T01:35:16.481Z,101510.38
2023-06-30T01:37:44.344Z,101509.53
2023-06-30T01:40:12.572Z,101511.25
2023-06-30T01:42:41.304Z,101498.25
2023-06-30T01:45:11.896Z,101504.31
2023-06-30T01:47:39.843Z,101501.72
2023-06-30T01:50:08.107Z,101497.38
2023-06-30T01:52:35.882Z,101501.78
2023-06-30T01:55:05.585Z,101496.56
2023-06-30T01:57:33.192Z,101499.16
2023-06-30T02:00:00.825Z,101500.94
2023-06-30T02:02:28.507Z,101487.94
2023-06-30T02:04:56.098Z,101494.88
2023-06-30T02:07:24.575Z,101497.50
2023-06-30T02:09:52.652Z,101494.94
2023-06-30T02:12:20.319Z,101495.84
2023-06-30T02:14:47.989Z,101494.13
2023-06-30T02:17:15.663Z,101495.88
2023-06-30T02:19:43.494Z,101492.34
2023-06-30T02:22:11.191Z,101493.19
2023-06-30T02:24:38.764Z,101482.78
2023-06-30T02:27:09.667Z,101481.91
2023-06-30T02:29:37.366Z,101487.13
2023-06-30T02:32:05.264Z,101489.75
2023-06-30T02:34:32.803Z,101482.00
2023-06-30T02:37:01.806Z,101485.50
2023-06-30T02:39:29.476Z,101487.28
2023-06-30T02:41:57.134Z,101485.53
2023-06-30T02:44:24.787Z,101488.16
2023-06-30T02:46:52.544Z,101486.41
2023-06-30T02:49:20.097Z,101495.16
2023-06-30T02:51:47.739Z,101486.47
2023-06-30T02:54:15.401Z,101489.03
2023-06-30T02:56:42.961Z,101495.16
2023-06-30T02:59:10.560Z,101481.16
2023-06-30T03:01:38.280Z,101487.22
2023-06-30T03:04:06.247Z,101481.97
2023-06-30T03:06:33.977Z,101480.16
2023-06-30T03:09:01.586Z,101487.09
2023-06-30T03:11:29.501Z,101487.09
2023-06-30T03:13:57.093Z,101474.97
2023-06-30T03:16:24.666Z,101479.19
2023-06-30T03:18:52.287Z,101490.53
2023-06-30T03:21:19.927Z,101483.59
2023-06-30T03:23:47.889Z,101488.00
2023-06-30T03:26:15.689Z,101483.63
2023-06-30T03:28:43.337Z,101485.41
2023-06-30T03:31:11.014Z,101485.38
2023-06-30T03:33:38.582Z,101481.06
2023-06-30T03:36:06.386Z,101490.63
2023-06-30T03:38:34.042Z,101490.56
2023-06-30T03:41:01.608Z,101486.22
2023-06-30T03:43:29.236Z,101494.97
2023-06-30T03:45:56.762Z,101494.97
2023-06-30T03:48:24.447Z,101495.84
2023-06-30T03:50:55.219Z,101487.13
2023-06-30T03:53:23.203Z,101495.88
2023-06-30T03:55:50.917Z,101490.66
2023-06-30T03:58:18.505Z,101494.97
2023-06-30T04:00:46.171Z,101495.84
2023-06-30T04:03:13.953Z,101495.81
2023-06-30T04:05:41.684Z,101494.06
2023-06-30T04:08:09.465Z,101485.34
2023-06-30T04:10:37.046Z,101491.34
2023-06-30T04:13:09.038Z,101487.81
2023-06-30T04:15:36.749Z,101493.84
2023-06-30T04:18:05.455Z,101479.97
2023-06-30T04:20:33.091Z,101480.75
2023-06-30T04:23:00.791Z,101481.56
2023-06-30T04:25:28.422Z,101480.66
2023-06-30T04:27:56.063Z,101465.13
2023-06-30T04:30:23.681Z,101490.19
2023-06-30T04:32:51.365Z,101487.47
2023-06-30T04:35:19.537Z,101481.25
2023-06-30T04:37:47.166Z,101489.00
2023-06-30T04:40:14.828Z,101482.69
2023-06-30T04:42:42.480Z,101475.53
2023-06-30T04:45:10.436Z,101478.81
2023-06-30T04:47:38.075Z,101482.00
2023-06-30T04:50:06.256Z,101469.63
2023-06-30T04:52:33.883Z,101477.13
2023-06-30T04:55:01.605Z,101479.53
2023-06-30T04:57:29.255Z,101479.31
2023-06-30T04:59:57.902Z,101482.66
2023-06-30T05:02:25.529Z,101482.16
2023-06-30T05:04:53.282Z,101477.63
2023-06-30T05:07:21.555Z,101476.41
2023-06-30T05:09:49.197Z,101474.31
2023-06-30T05:12:16.888Z,101477.53
2023-06-30T05:14:44.505Z,101468.47
2023-06-30T05:17:12.333Z,101475.53
2023-06-30T05:19:40.133Z,101473.75
2023-06-30T05:22:07.796Z,101471.59
2023-06-30T05:24:35.679Z,101483.44
2023-06-30T05:27:03.683Z,101480.75
2023-06-30T05:29:33.238Z,101481.53
2023-06-30T05:32:00.828Z,101485.16
2023-06-30T05:34:29.910Z,101481.09
2023-06-30T05:36:58.035Z,101471.19
2023-06-30T05:39:25.660Z,101469.41
2023-06-30T05:41:53.212Z,101465.72
2023-06-30T05:44:20.921Z,101461.22
2023-06-30T05:46:48.572Z,101466.41
2023-06-30T05:49:16.272Z,101467.78
2023-06-30T05:51:43.839Z,101459.03
2023-06-30T05:54:11.555Z,101465.66
2023-06-30T05:56:39.158Z,101474.28
2023-06-30T05:59:10.652Z,101472.31
2023-06-30T06:01:39.640Z,101467.88
2023-06-30T06:04:12.047Z,101463.44
2023-06-30T06:06:40.111Z,101467.16
2023-06-30T06:09:07.919Z,101461.78
2023-06-30T06:11:35.516Z,101466.66
2023-06-30T06:14:03.172Z,101464.78
2023-06-30T06:16:30.789Z,101471.72
2023-06-30T06:18:58.440Z,101471.38
2023-06-30T06:21:29.222Z,101465.94
2023-06-30T06:23:57.680Z,101459.50
2023-06-30T06:26:25.402Z,101469.13
2023-06-30T06:28:53.116Z,101461.09
2023-06-30T06:31:20.759Z,101462.97
2023-06-30T06:33:48.446Z,101460.47
2023-06-30T06:36:16.049Z,101462.63
2023-06-30T06:38:43.687Z,101464.25
2023-06-30T06:41:11.372Z,101465.22
2023-06-30T06:43:38.983Z,101456.31
2023-06-30T06:46:06.710Z,101457.06
2023-06-30T06:48:34.461Z,101460.06
2023-06-30T06:51:04.451Z,101462.47
2023-06-30T06:53:34.703Z,101454.06
2023-06-30T06:56:03.386Z,101457.31
2023-06-30T06:58:33.254Z,101452.28
2023-06-30T07:01:01.206Z,101461.53
2023-06-30T07:03:29.469Z,101456.25
2023-06-30T07:05:58.827Z,101453.94
2023-06-30T07:08:27.799Z,101463.66
2023-06-30T07:10:56.466Z,101458.47
2023-06-30T07:13:24.578Z,101438.22
2023-06-30T07:15:52.389Z,101459.44
2023-06-30T07:18:21.036Z,101462.75
2023-06-30T07:20:53.241Z,101463.50
2023-06-30T07:23:20.809Z,101469.31
2023-06-30T07:25:50.493Z,101461.88
2023-06-30T07:28:18.194Z,101457.06
2023-06-30T07:30:45.938Z,101462.94
2023-06-30T07:33:14.333Z,101454.69
2023-06-30T07:35:42.387Z,101462.72
2023-06-30T07:38:10.594Z,101457.88
2023-06-30T07:40:54.246Z,101453.47
2023-06-30T07:43:24.135Z,101457.81
2023-06-30T07:45:52.143Z,101448.41
2023-06-30T07:48:19.978Z,101445.38
2023-06-30T07:50:59.477Z,101445.94
2023-06-30T07:53:35.228Z,101448.28
2023-06-30T07:56:02.863Z,101447.28
2023-06-30T07:58:30.519Z,101444.78
2023-06-30T08:00:58.307Z,101447.69
2023-06-30T08:03:26.048Z,101435.34
2023-06-30T08:05:54.443Z,101448.25
2023-06-30T08:08:25.096Z,101431.78
2023-06-30T08:10:52.876Z,101437.91
2023-06-30T08:13:20.501Z,101437.00
2023-06-30T08:15:49.508Z,101437.19
2023-06-30T08:18:31.622Z,101431.69
2023-06-30T08:21:03.285Z,101433.09
2023-06-30T08:23:30.984Z,101437.97
2023-06-30T08:25:58.639Z,101429.81
2023-06-30T08:28:26.517Z,101434.66
2023-06-30T08:30:54.966Z,101436.53
2023-06-30T08:36:03.267Z,101427.16
2023-06-30T08:38:31.068Z,101434.44
2023-06-30T08:40:59.193Z,101429.50
2023-06-30T08:43:29.416Z,101418.50
2023-06-30T08:45:58.028Z,101421.69
2023-06-30T08:48:27.814Z,101421.63
2023-06-30T08:50:55.739Z,101421.56
2023-06-30T08:53:24.506Z,101421.25
2023-06-30T08:55:52.498Z,101421.97
2023-06-30T08:58:25.243Z,101413.38
2023-06-30T09:00:53.710Z,101405.72
2023-06-30T09:03:21.647Z,101407.28
2023-06-30T09:05:52.036Z,101405.19
2023-06-30T09:08:25.153Z,101410.78
2023-06-30T09:10:53.132Z,101405.84
2023-06-30T09:13:22.517Z,101389.56
2023-06-30T09:15:51.264Z,101399.84
2023-06-30T09:18:19.067Z,101393.97
2023-06-30T09:20:46.800Z,101385.03
2023-06-30T09:23:16.868Z,101392.13
2023-06-30T09:25:45.101Z,101381.81
2023-06-30T09:28:15.674Z,101384.53
2023-06-30T09:30:49.091Z,101379.28
2023-06-30T09:33:18.004Z,101380.56
2023-06-30T09:35:49.922Z,101379.53
2023-06-30T09:38:20.234Z,101376.84
2023-06-30T09:40:50.566Z,101379.09
2023-06-30T09:43:20.315Z,101380.97
2023-06-30T09:45:55.303Z,101383.16
2023-06-30T09:48:23.125Z,101375.69
2023-06-30T09:50:53.792Z,101382.06
2023-06-30T09:53:21.803Z,101378.34
2023-06-30T09:55:51.248Z,101384.09
2023-06-30T09:58:20.281Z,101381.00
2023-06-30T10:00:48.680Z,101377.53
2023-06-30T10:03:18.360Z,101374.97
2023-06-30T10:05:49.467Z,101378.22
2023-06-30T10:08:18.158Z,101371.88
2023-06-30T10:10:45.975Z,101374.09
2023-06-30T10:13:14.649Z,101371.19
2023-06-30T10:15:43.535Z,101368.88
2023-06-30T10:18:12.789Z,101374.63
2023-06-30T10:20:48.348Z,101368.84
2023-06-30T10:23:18.156Z,101359.56
2023-06-30T10:25:46.191Z,101365.91
2023-06-30T10:28:16.007Z,101374.66
2023-06-30T10:30:44.368Z,101363.00
2023-06-30T10:33:12.116Z,101353.38
2023-06-30T10:35:40.317Z,101355.69
2023-06-30T10:38:08.136Z,101356.75
2023-06-30T10:40:35.745Z,101351.78
2023-06-30T10:43:08.100Z,101352.00
2023-06-30T10:45:37.155Z,101339.81
2023-06-30T10:48:11.986Z,101346.09
2023-06-30T10:50:43.690Z,101337.63
2023-06-30T10:53:18.766Z,101342.16
2023-06-30T10:55:47.044Z,101333.28
2023-06-30T10:58:24.454Z,101337.44
2023-06-30T11:01:07.972Z,101332.97
2023-06-30T11:04:00.513Z,101321.59
2023-06-30T11:06:28.526Z,101328.69
2023-06-30T11:09:01.978Z,101315.56
2023-06-30T11:11:29.868Z,101319.25
2023-06-30T11:14:08.004Z,101318.59
2023-06-30T11:17:07.874Z,101308.41
2023-06-30T11:19:38.909Z,101310.81
2023-06-30T11:22:26.485Z,101314.28
2023-06-30T11:24:54.541Z,101309.97
2023-06-30T11:27:23.118Z,101302.53
2023-06-30T11:29:52.223Z,101292.50
2023-06-30T11:32:26.945Z,101294.25
2023-06-30T11:34:55.111Z,101292.44
2023-06-30T11:37:23.046Z,101300.59
2023-06-30T11:39:59.688Z,101296.28
2023-06-30T11:42:27.684Z,101289.00
2023-06-30T11:44:55.261Z,101283.94
2023-06-30T11:47:23.048Z,101289.00
2023-06-30T11:49:51.464Z,101276.16
2023-06-30T11:52:20.892Z,101285.41
2023-06-30T11:54:48.455Z,101288.59
2023-06-30T11:57:16.109Z,101281.34
2023-06-30T11:59:43.710Z,101282.44
2023-06-30T12:02:13.021Z,101290.47
2023-06-30T12:04:48.858Z,101288.56
2023-06-30T12:07:16.919Z,101280.50
2023-06-30T12:09:44.661Z,101280.72
2023-06-30T12:12:12.277Z,101277.88
2023-06-30T12:14:43.597Z,101284.97
2023-06-30T12:17:11.621Z,101271.63
2023-06-30T12:19:39.616Z,101264.13
2023-06-30T12:22:08.187Z,101272.56
2023-06-30T12:24:36.567Z,101263.53
2023-06-30T12:27:10.843Z,101266.81
2023-06-30T12:29:38.445Z,101260.81
2023-06-30T12:32:16.548Z,101254.34
2023-06-30T12:34:47.301Z,101250.31
2023-06-30T12:37:18.956Z,101241.84
2023-06-30T12:39:46.668Z,101240.28
2023-06-30T12:42:14.426Z,101233.84
2023-06-30T12:44:42.002Z,101226.69
2023-06-30T12:47:09.754Z,101228.97
2023-06-30T12:49:38.494Z,101224.53
2023-06-30T12:52:06.522Z,101225.81
2023-06-30T12:54:34.173Z,101223.84
2023-06-30T12:57:01.860Z,101222.56
2023-06-30T12:59:29.468Z,101219.13
2023-06-30T13:01:57.216Z,101227.13
2023-06-30T13:04:26.082Z,101215.56
2023-06-30T13:06:55.926Z,101216.28
2023-06-30T13:09:23.451Z,101216.75
2023-06-30T13:11:51.228Z,101213.31
2023-06-30T13:14:18.968Z,101211.09
2023-06-30T13:16:46.617Z,101212.38
2023-06-30T13:19:14.428Z,101202.28
2023-06-30T13:21:42.071Z,101203.75
2023-06-30T13:24:09.681Z,101198.06
2023-06-30T13:26:38.337Z,101198.81
2023-06-30T13:29:06.467Z,101198.38
2023-06-30T13:31:34.211Z,101208.84
2023-06-30T13:34:02.089Z,101184.69
2023-06-30T13:36:31.096Z,101192.78
2023-06-30T13:38:59.436Z,101183.22
2023-06-30T13:41:28.032Z,101183.88
2023-06-30T13:43:55.669Z,101171.38
2023-06-30T13:46:23.389Z,101178.53
2023-06-30T13:48:51.030Z,101172.63
2023-06-30T13:51:18.684Z,101169.81
2023-06-30T13:53:46.251Z,101161.72
2023-06-30T13:56:13.937Z,101158.16
2023-06-30T13:58:42.684Z,101168.91
2023-06-30T14:01:10.283Z,101150.03
2023-06-30T14:03:39.086Z,101148.84
2023-06-30T14:06:06.928Z,101146.06
2023-06-30T14:08:35.294Z,101158.28
2023-06-30T14:11:03.106Z,101149.78
2023-06-30T14:13:30.619Z,101150.94
2023-06-30T14:15:58.133Z,101140.00
2023-06-30T14:18:25.735Z,101139.78
2023-06-30T14:20:53.373Z,101132.56
2023-06-30T14:23:21.013Z,101136.16
2023-06-30T14:25:48.811Z,101141.06
2023-06-30T14:28:16.734Z,101138.69
2023-06-30T14:30:44.437Z,101136.72
2023-06-30T14:33:12.220Z,101143.31
2023-06-30T14:35:40.340Z,101133.84
2023-06-30T14:38:08.321Z,101120.22
2023-06-30T14:40:35.986Z,101121.63
2023-06-30T14:43:05.010Z,101121.66
2023-06-30T14:45:32.716Z,101130.75
2023-06-30T14:48:00.366Z,101126.03
2023-06-30T14:50:28.327Z,101120.19
2023-06-30T14:52:55.915Z,101121.72
2023-06-30T14:55:23.709Z,101120.72
2023-06-30T14:57:51.999Z,101113.59
2023-06-30T15:00:20.709Z,101111.75
2023-06-30T15:02:49.170Z,101115.53
2023-06-30T15:05:16.985Z,101107.38
2023-06-30T15:07:47.162Z,101126.28
2023-06-30T15:10:15.306Z,101116.59
2023-06-30T15:12:42.905Z,101109.38
2023-06-30T15:15:11.291Z,101107.16
2023-06-30T15:17:39.206Z,101102.63
2023-06-30T15:20:08.124Z,101109.78
2023-06-30T15:22:36.081Z,101102.09
2023-06-30T15:25:04.609Z,101103.81
2023-06-30T15:27:33.317Z,101091.81
2023-06-30T15:30:01.275Z,101097.53
2023-06-30T15:32:29.123Z,101095.28
2023-06-30T15:34:56.747Z,101104.59
2023-06-30T15:37:24.518Z,101094.50
2023-06-30T15:39:52.438Z,101090.72
2023-06-30T15:42:20.290Z,101086.91
2023-06-30T15:44:47.942Z,101085.72
2023-06-30T15:47:15.564Z,101085.22
2023-06-30T15:49:43.332Z,101079.59
2023-06-30T15:52:12.169Z,101084.81
2023-06-30T15:54:39.740Z,101074.88
2023-06-30T15:57:07.464Z,101075.50
2023-06-30T15:59:35.438Z,101073.03
2023-06-30T16:02:03.080Z,101067.75
2023-06-30T16:04:30.801Z,101073.03
2023-06-30T16:06:59.342Z,101056.53
2023-06-30T16:09:27.054Z,101060.44
2023-06-30T16:11:54.702Z,101064.41
2023-06-30T16:14:22.290Z,101064.09
2023-06-30T16:16:49.896Z,101056.41
2023-06-30T16:19:17.504Z,101056.22
2023-06-30T16:21:45.115Z,101053.25
2023-06-30T16:24:12.707Z,101052.81
2023-06-30T16:26:40.756Z,101044.53
2023-06-30T16:30:18.797Z,101046.22
2023-06-30T16:32:46.572Z,101038.25
2023-06-30T16:35:14.269Z,101042.13
2023-06-30T16:37:41.979Z,101031.91
2023-06-30T16:40:10.943Z,101026.13
2023-06-30T16:42:41.228Z,101041.41
2023-06-30T16:45:10.591Z,101027.16
2023-06-30T16:47:42.866Z,101033.94
2023-06-30T16:50:12.911Z,101034.00
2023-06-30T16:52:40.737Z,101035.25
2023-06-30T16:55:09.048Z,101034.38
2023-06-30T16:57:36.710Z,101034.78
2023-06-30T17:00:06.138Z,101028.06
2023-06-30T17:02:34.151Z,101050.09
2023-06-30T17:05:01.948Z,101050.41
2023-06-30T17:07:29.695Z,101049.16
2023-06-30T17:09:57.259Z,101047.75
2023-06-30T17:12:24.892Z,101049.66
2023-06-30T17:14:52.740Z,101056.66
2023-06-30T17:17:21.505Z,101046.22
2023-06-30T17:19:50.891Z,101051.81
2023-06-30T17:22:18.700Z,101053.84
2023-06-30T17:24:46.281Z,101042.00
2023-06-30T17:27:13.912Z,101052.59
2023-06-30T17:29:41.578Z,101047.13
2023-06-30T17:32:10.127Z,101040.59
2023-06-30T17:34:37.724Z,101051.19
2023-06-30T17:37:09.223Z,101045.25
2023-06-30T17:39:37.843Z,101049.00
2023-06-30T17:42:05.743Z,101048.16
2023-06-30T17:44:33.317Z,101052.75
2023-06-30T17:47:02.382Z,101042.94
2023-06-30T17:49:31.750Z,101044.44
2023-06-30T17:52:00.081Z,101043.16
2023-06-30T17:54:28.553Z,101048.72
2023-06-30T17:56:56.672Z,101032.66
2023-06-30T17:59:24.625Z,101039.91
2023-06-30T18:01:52.227Z,101038.41
2023-06-30T18:04:20.033Z,101039.81
2023-06-30T18:07:06.236Z,101039.81
2023-06-30T18:09:36.223Z,101026.84
2023-06-30T18:12:04.860Z,101033.59
2023-06-30T18:14:33.773Z,101027.97
2023-06-30T18:17:02.263Z,101023.63
2023-06-30T18:19:30.125Z,101030.41
2023-06-30T18:21:57.822Z,101025.19
2023-06-30T18:24:26.064Z,101024.09
2023-06-30T18:26:53.948Z,101031.56
2023-06-30T18:29:23.972Z,101028.13
2023-06-30T18:31:52.822Z,101021.13
2023-06-30T18:34:21.961Z,101018.94
2023-06-30T18:36:49.766Z,101022.66
2023-06-30T18:39:18.297Z,101019.72
2023-06-30T18:41:46.172Z,101017.84
2023-06-30T18:44:13.854Z,101015.34
2023-06-30T18:46:41.624Z,101014.28
2023-06-30T18:49:11.933Z,101016.84
2023-06-30T18:51:40.087Z,101015.22
2023-06-30T18:54:07.941Z,101010.47
2023-06-30T18:56:35.586Z,101005.63
2023-06-30T18:59:03.928Z,101009.59
2023-06-30T19:01:31.601Z,101007.72
2023-06-30T19:03:59.396Z,101007.72
2023-06-30T19:06:27.870Z,101006.53
2023-06-30T19:08:56.228Z,100997.66
2023-06-30T19:11:24.672Z,100991.19
2023-06-30T19:13:52.807Z,100999.53
2023-06-30T19:16:20.657Z,101005.72
2023-06-30T19:18:48.416Z,101000.44
2023-06-30T19:21:16.414Z,100999.47
2023-06-30T19:23:44.256Z,101001.03
2023-06-30T19:26:12.899Z,100985.91
2023-06-30T19:28:41.612Z,100990.75
2023-06-30T19:31:09.628Z,100993.38
2023-06-30T19:33:38.037Z,100996.47
2023-06-30T19:36:06.335Z,100989.03
2023-06-30T19:38:34.185Z,100997.34
2023-06-30T19:41:01.912Z,100987.03
2023-06-30T19:43:29.716Z,100977.91
2023-06-30T19:45:57.345Z,100977.03
2023-06-30T19:48:25.100Z,100978.09
2023-06-30T19:50:52.896Z,100966.59
2023-06-30T19:53:20.820Z,100974.88
2023-06-30T19:55:49.066Z,100974.28
2023-06-30T19:58:17.686Z,100973.53
2023-06-30T20:00:45.550Z,100974.97
2023-06-30T20:03:13.755Z,100970.84
2023-06-30T20:05:41.901Z,100968.75
2023-06-30T20:08:10.724Z,100974.28
2023-06-30T20:10:38.970Z,100958.56
2023-06-30T20:13:07.855Z,100973.09
2023-06-30T20:15:36.045Z,100970.03
2023-06-30T20:18:04.334Z,100964.78
2023-06-30T20:20:32.394Z,100953.22
2023-06-30T20:23:02.186Z,100951.59
2023-06-30T20:25:30.204Z,100949.00
2023-06-30T20:27:58.442Z,100953.44
2023-06-30T20:30:26.727Z,100956.22
2023-06-30T20:32:54.924Z,100954.44
2023-06-30T20:35:23.074Z,100942.31
2023-06-30T20:37:51.151Z,100940.13
2023-06-30T20:40:19.724Z,100939.06
2023-06-30T20:42:47.805Z,100931.75
2023-06-30T20:45:16.177Z,100931.81
2023-06-30T20:47:44.377Z,100927.81
2023-06-30T20:50:12.864Z,100920.38
2023-06-30T20:52:40.565Z,100921.97
2023-06-30T20:55:08.530Z,100919.13
2023-06-30T20:57:36.755Z,100917.25
2023-06-30T21:00:05.746Z,100915.84
2023-06-30T21:02:33.597Z,100903.56
2023-06-30T21:05:01.433Z,100903.56
2023-06-30T21:07:29.120Z,100905.53
2023-06-30T21:09:56.789Z,100907.25
2023-06-30T21:12:24.369Z,100904.03
2023-06-30T21:14:53.174Z,100902.09
2023-06-30T21:17:20.868Z,100893.88
2023-06-30T21:19:48.563Z,100894.06
2023-06-30T21:22:16.227Z,100879.03
2023-06-30T21:24:43.783Z,100881.16
2023-06-30T21:27:11.477Z,100871.44
2023-06-30T21:29:39.456Z,100872.44
2023-06-30T21:32:08.302Z,100867.69
2023-06-30T21:34:36.298Z,100862.41
2023-06-30T21:37:04.033Z,100866.38
2023-06-30T21:39:31.657Z,100851.88
2023-06-30T21:41:59.311Z,100852.00
2023-06-30T21:44:26.835Z,100849.31
2023-06-30T21:46:54.391Z,100840.91
2023-06-30T21:49:21.985Z,100830.63
2023-06-30T21:51:49.609Z,100830.06
2023-06-30T21:54:23.695Z,100830.63
2023-06-30T21:56:59.037Z,100829.19
2023-06-30T21:59:26.639Z,100824.03
2023-06-30T22:01:54.401Z,100824.47
2023-06-30T22:04:22.059Z,100823.78
2023-06-30T22:06:49.663Z,100822.66
2023-06-30T22:09:17.274Z,100814.16
2023-06-30T22:11:45.222Z,100813.34
2023-06-30T22:14:13.315Z,100813.34
2023-06-30T22:16:41.040Z,100805.63
2023-06-30T22:19:08.816Z,100795.44
2023-06-30T22:21:36.484Z,100801.34
2023-06-30T22:24:04.399Z,100799.41
2023-06-30T22:26:32.002Z,100791.09
2023-06-30T22:28:59.643Z,100798.84
2023-06-30T22:31:27.314Z,100794.50
2023-06-30T22:33:54.935Z,100786.59
2023-06-30T22:36:22.614Z,100796.22
2023-06-30T22:38:51.287Z,100790.66
2023-06-30T22:41:18.947Z,100795.03
2023-06-30T22:43:47.690Z,100780.31
2023-06-30T22:46:15.495Z,100781.69
2023-06-30T22:48:43.058Z,100777.75
2023-06-30T22:51:10.786Z,100761.16
2023-06-30T22:53:38.397Z,100759.59
2023-06-30T22:56:07.507Z,100758.44
2023-06-30T22:58:35.220Z,100761.94
2023-06-30T23:01:02.802Z,100757.72
2023-06-30T23:03:30.603Z,100747.72
2023-06-30T23:05:58.286Z,100745.88
2023-06-30T23:08:25.911Z,100741.91
2023-06-30T23:10:54.058Z,100738.75
2023-06-30T23:13:21.661Z,100734.78
2023-06-30T23:15:49.369Z,100728.34
2023-06-30T23:18:20.190Z,100724.66
2023-06-30T23:20:49.408Z,100717.81
2023-06-30T23:23:17.371Z,100719.03
2023-06-30T23:25:44.933Z,100721.09
2023-06-30T23:28:12.678Z,100715.00
2023-06-30T23:30:40.947Z,100716.06
2023-06-30T23:33:08.827Z,100709.63
2023-06-30T23:35:36.463Z,100711.84
2023-06-30T23:38:04.014Z,100703.91
2023-06-30T23:40:31.577Z,100701.81
2023-06-30T23:43:01.026Z,100706.19
2023-06-30T23:45:28.679Z,100704.47
2023-06-30T23:47:56.357Z,100700.38
2023-06-30T23:50:24.088Z,100698.66
2023-06-30T23:52:51.814Z,100700.91
2023-06-30T23:55:19.421Z,100704.47
2023-06-30T23:57:46.988Z,100698.03
